Currently 59°F in Riverside (Presidential Park), California, USA
59°F
59°F / 36°F
7 mph W
0.00"
Friday, February 22, 2019 3:23 PM PST

Riverside (Presidential Park), California Weather Summary
Last 36 Hours

Temperature Winds Hourly Humidity Dewpoint
Time Report Norm Report Norm Max Gusts Precip. Rpt. Norm Rpt. Norm Pressure
1,2Fri 03:23 PM  58.7°F  66°F  7 mph W  6 mph  12 mph  0.00"  30%  40%  26°F  40°F  29.99"
Fri 03:00 PM  57.9°F  66°F  4 mph NW  6 mph  13 mph  0.00"  30%  40%  25°F  40°F  29.98"
Fri 02:00 PM  57.8°F  66°F  8 mph W  5 mph  16 mph  0.00"  29%  40%  24°F  40°F  29.97"
Fri 01:00 PM  57.5°F  66°F  5 mph NW  5 mph  20 mph  0.00"  28%  39%  24°F  39°F  29.97"
Fri 12:00 PM  56.5°F  64°F  9 mph E  4 mph  20 mph  0.00"  29%  42%  23°F  40°F  29.97"
Fri 11:00 AM  54.8°F  62°F  5 mph NW  3 mph  22 mph  0.00"  32%  47%  24°F  41°F  29.98"
Fri 10:00 AM  53.0°F  59°F  8 mph SW  3 mph  20 mph  0.00"  34%  54%  24°F  42°F  29.96"
Fri 09:00 AM  50.7°F  55°F  5 mph SW  2 mph  18 mph  0.00"  38%  63%  25°F  42°F  29.95"
Fri 08:00 AM  47.6°F  49°F  10 mph W  2 mph  22 mph  0.00"  40%  74%  23°F  41°F  29.93"
Fri 07:00 AM  46.1°F  47°F  9 mph W  1 mph  21 mph  0.00"  44%  77%  25°F  40°F  29.89"
Fri 06:00 AM  44.4°F  47°F  7 mph NW  1 mph  14 mph  0.00"  55%  77%  28°F  40°F  29.87"
Fri 05:00 AM  36.6°F  47°F  calm  1 mph  5 mph  0.00"  92%  77%  34°F  40°F  29.83"
3Fri 04:31 AM  36.1°F  47°F  calm  1 mph  5 mph  ----  93%  76%  34°F  40°F  29.82"
Fri 04:00 AM  36.6°F  48°F  3 mph SE  1 mph  5 mph  0.00"  94%  76%  35°F  40°F  29.81"
Fri 03:00 AM  36.8°F  48°F  calm  1 mph  4 mph  0.00"  94%  75%  35°F  40°F  29.79"
Fri 02:00 AM  36.9°F  49°F  calm  1 mph  4 mph  0.00"  94%  74%  35°F  41°F  29.78"
Fri 01:00 AM  36.7°F  50°F  2 mph SE  1 mph  5 mph  0.00"  94%  73%  35°F  41°F  29.76"
Fri 12:00 AM  36.7°F  51°F  calm  1 mph  3 mph  0.00"  93%  72%  35°F  42°F  29.73"
Thu 11:00 PM  36.9°F  52°F  1 mph SE  2 mph  4 mph  0.00"  93%  70%  35°F  42°F  29.71"
Thu 10:00 PM  38.8°F  53°F  calm  2 mph  none  0.00"  92%  68%  36°F  42°F  29.70"
Thu 09:00 PM  39.6°F  55°F  calm  1 mph  3 mph  0.00"  91%  64%  37°F  42°F  29.68"
Thu 08:00 PM  40.5°F  57°F  calm  2 mph  5 mph  0.00"  91%  59%  38°F  43°F  29.67"
Thu 07:00 PM  40.1°F  60°F  calm  3 mph  6 mph  0.00"  91%  53%  37°F  42°F  29.65"
Thu 06:00 PM  39.4°F  62°F  3 mph SE  4 mph  11 mph  0.00"  90%  48%  37°F  41°F  29.62"
Thu 05:00 PM  42.4°F  65°F  4 mph SW  6 mph  12 mph  0.01"  88%  42%  39°F  41°F  29.61"
Thu 04:00 PM  42.0°F  67°F  4 mph W  6 mph  14 mph  0.07"  89%  38%  39°F  40°F  29.60"
Thu 03:00 PM  42.9°F  67°F  6 mph W  6 mph  19 mph  0.05"  83%  37%  38°F  39°F  29.60"
Thu 02:00 PM  46.8°F  67°F  7 mph W  5 mph  21 mph  0.00"  65%  37%  35°F  39°F  29.57"
Thu 01:00 PM  54.1°F  67°F  8 mph NE  5 mph  15 mph  0.00"  51%  37%  36°F  39°F  29.56"
Thu 12:00 PM  52.5°F  65°F  7 mph SW  4 mph  14 mph  0.00"  50%  40%  34°F  39°F  29.57"
Thu 11:00 AM  51.8°F  63°F  6 mph SW  3 mph  12 mph  0.00"  54%  45%  35°F  40°F  29.58"
Thu 10:00 AM  49.0°F  60°F  2 mph S  3 mph  11 mph  0.00"  70%  52%  39°F  41°F  29.59"
Thu 09:00 AM  47.1°F  56°F  6 mph W  2 mph  12 mph  0.00"  77%  61%  40°F  42°F  29.60"
Thu 08:00 AM  44.7°F  50°F  4 mph SW  2 mph  8 mph  0.00"  86%  72%  41°F  41°F  29.59"
Thu 07:00 AM  43.1°F  47°F  calm  1 mph  6 mph  0.00"  90%  75%  40°F  39°F  29.58"
Thu 06:00 AM  43.8°F  47°F  calm  1 mph  4 mph  0.00"  93%  75%  42°F  39°F  29.58"
Thu 05:00 AM  43.8°F  48°F  calm  2 mph  2 mph  0.00"  93%  74%  42°F  39°F  29.58"
Thu 04:00 AM  44.6°F  48°F  calm  1 mph  2 mph  0.02"  92%  74%  42°F  40°F  29.59"

  1. Current weather data. No green row appears if the current weather data is also the high or low for the current day.
  2. High temperature for the current day.
  3. Low temperature for the current day.

The Riverside (Presidential Park), California weather pages are a service of WeatherCurrents.
Copyright ©Fri Feb 22 15:24:20 PST 2019  WeatherCurrents. All rights reserved. - Submit questions and comments - Privacy Policy

This page automatically refreshes every 10 minutes.